createdAt,value
2023-02-02T00:02:24.114Z,9.40
2023-02-02T00:04:52.181Z,9.60
2023-02-02T00:07:20.872Z,9.60
2023-02-02T00:09:49.225Z,8.00
2023-02-02T00:12:18.326Z,8.60
2023-02-02T00:14:46.668Z,9.00
2023-02-02T00:17:16.168Z,9.10
2023-02-02T00:19:44.358Z,9.10
2023-02-02T00:22:14.183Z,9.90
2023-02-02T00:24:42.173Z,9.50
2023-02-02T00:27:11.250Z,9.60
2023-02-02T00:29:40.151Z,9.00
2023-02-02T00:32:09.274Z,9.30
2023-02-02T00:34:38.260Z,8.40
2023-02-02T00:37:07.068Z,8.40
2023-02-02T00:39:35.367Z,9.30
2023-02-02T00:42:04.427Z,10.70
2023-02-02T00:44:53.958Z,9.00
2023-02-02T00:47:24.463Z,8.20
2023-02-02T00:49:53.691Z,9.40
2023-02-02T00:52:23.126Z,7.40
2023-02-02T00:54:51.967Z,9.40
2023-02-02T00:57:22.479Z,9.50
2023-02-02T00:59:51.059Z,9.00
2023-02-02T01:02:20.579Z,9.00
2023-02-02T01:04:49.247Z,9.60
2023-02-02T01:07:18.634Z,8.90
2023-02-02T01:09:47.980Z,8.40
2023-02-02T01:12:18.537Z,8.50
2023-02-02T01:14:47.750Z,9.00
2023-02-02T01:17:17.667Z,9.30
2023-02-02T01:19:46.508Z,8.50
2023-02-02T01:22:15.409Z,9.30
2023-02-02T01:24:43.828Z,8.60
2023-02-02T01:27:12.432Z,10.50
2023-02-02T01:29:41.079Z,9.90
2023-02-02T01:32:10.925Z,8.60
2023-02-02T01:34:44.141Z,10.20
2023-02-02T01:37:13.327Z,10.90
2023-02-02T01:39:43.051Z,10.10
2023-02-02T01:42:16.734Z,10.50
2023-02-02T01:45:15.139Z,9.70
2023-02-02T01:47:55.201Z,10.40
2023-02-02T01:50:26.401Z,11.60
2023-02-02T01:52:56.024Z,10.00
2023-02-02T01:55:25.775Z,8.60
2023-02-02T01:58:04.115Z,9.60
2023-02-02T02:00:36.375Z,9.80
2023-02-02T02:03:11.764Z,9.10
2023-02-02T02:05:48.022Z,9.20
2023-02-02T02:08:19.688Z,9.60
2023-02-02T02:10:48.587Z,9.40
2023-02-02T02:13:17.602Z,9.70
2023-02-02T02:16:47.775Z,9.40
2023-02-02T02:19:19.316Z,9.20
2023-02-02T02:22:10.155Z,10.00
2023-02-02T02:25:29.926Z,9.90
2023-02-02T02:28:48.267Z,8.50
2023-02-02T02:31:17.095Z,8.80
2023-02-02T02:34:04.578Z,9.00
2023-02-02T02:37:01.151Z,9.00
2023-02-02T02:39:40.105Z,8.70
2023-02-02T02:42:16.453Z,9.70
2023-02-02T02:44:45.688Z,10.20
2023-02-02T02:47:14.644Z,8.70
2023-02-02T02:49:44.066Z,9.90
2023-02-02T02:52:12.750Z,8.00
2023-02-02T02:54:47.573Z,9.40
2023-02-02T02:57:54.967Z,9.30
2023-02-02T03:00:58.061Z,9.60
2023-02-02T03:03:35.564Z,8.90
2023-02-02T03:06:15.955Z,8.60
2023-02-02T03:08:53.205Z,10.20
2023-02-02T03:11:21.539Z,8.70
2023-02-02T03:13:52.503Z,8.40
2023-02-02T03:16:22.500Z,9.70
2023-02-02T03:18:51.710Z,10.20
2023-02-02T03:21:21.024Z,8.80
2023-02-02T03:23:50.138Z,8.30
2023-02-02T03:26:18.349Z,8.70
2023-02-02T03:28:47.195Z,9.70
2023-02-02T03:31:16.176Z,9.60
2023-02-02T03:33:46.157Z,9.10
2023-02-02T03:36:14.534Z,9.20
2023-02-02T03:38:45.105Z,10.00
2023-02-02T03:41:13.291Z,7.80
2023-02-02T03:43:41.905Z,9.00
2023-02-02T03:46:10.710Z,10.00
2023-02-02T03:48:39.332Z,9.90
2023-02-02T03:51:14.771Z,9.00
2023-02-02T03:53:49.982Z,9.50
2023-02-02T03:56:20.299Z,8.30
2023-02-02T03:58:49.015Z,9.90
2023-02-02T04:01:17.599Z,10.10
2023-02-02T04:03:46.628Z,9.60
2023-02-02T04:08:17.160Z,9.20
2023-02-02T04:10:45.855Z,9.20
2023-02-02T04:13:15.195Z,10.00
2023-02-02T04:15:44.030Z,9.10
2023-02-02T04:18:13.206Z,9.40
2023-02-02T04:20:43.826Z,10.20
2023-02-02T04:23:12.999Z,10.00
2023-02-02T04:25:49.128Z,10.40
2023-02-02T04:28:17.971Z,9.90
2023-02-02T04:30:48.045Z,10.30
2023-02-02T04:33:19.235Z,9.30
2023-02-02T04:35:49.148Z,11.30
2023-02-02T04:38:21.199Z,10.50
2023-02-02T04:40:50.383Z,10.20
2023-02-02T04:43:22.471Z,10.40
2023-02-02T04:45:59.096Z,10.50
2023-02-02T04:48:28.683Z,6.60
2023-02-02T04:51:01.700Z,10.10
2023-02-02T04:53:33.320Z,10.40
2023-02-02T04:56:15.207Z,10.30
2023-02-02T04:58:44.404Z,10.10
2023-02-02T05:01:18.023Z,11.00
2023-02-02T05:03:47.702Z,10.10
2023-02-02T05:06:21.562Z,9.80
2023-02-02T05:08:52.078Z,11.40
2023-02-02T05:11:23.405Z,11.20
2023-02-02T05:13:57.233Z,10.90
2023-02-02T05:16:28.966Z,11.50
2023-02-02T05:18:59.704Z,11.70
2023-02-02T05:21:29.215Z,11.30
2023-02-02T05:23:58.011Z,13.10
2023-02-02T05:26:29.730Z,11.20
2023-02-02T05:29:01.313Z,11.90
2023-02-02T05:31:32.762Z,11.40
2023-02-02T05:34:02.129Z,10.50
2023-02-02T05:36:31.663Z,11.20
2023-02-02T05:39:01.365Z,9.70
2023-02-02T05:41:30.403Z,11.60
2023-02-02T05:44:02.382Z,10.40
2023-02-02T05:46:31.426Z,11.20
2023-02-02T05:49:05.348Z,10.60
2023-02-02T05:52:00.817Z,9.50
2023-02-02T05:54:30.241Z,11.40
2023-02-02T05:57:01.382Z,9.90
2023-02-02T05:59:31.097Z,10.90
2023-02-02T06:02:00.715Z,10.50
2023-02-02T06:04:33.855Z,11.10
2023-02-02T06:07:05.057Z,11.00
2023-02-02T06:09:59.644Z,11.60
2023-02-02T06:12:29.115Z,12.20
2023-02-02T06:14:58.237Z,11.30
2023-02-02T06:17:31.846Z,11.70
2023-02-02T06:19:59.687Z,10.90
2023-02-02T06:22:31.616Z,11.10
2023-02-02T06:25:04.997Z,11.20
2023-02-02T06:27:34.105Z,11.40
2023-02-02T06:30:03.344Z,11.80
2023-02-02T06:32:32.829Z,11.30
2023-02-02T06:35:04.113Z,11.40
2023-02-02T06:37:34.268Z,12.00
2023-02-02T06:40:05.220Z,11.80
2023-02-02T06:42:35.310Z,11.60
2023-02-02T06:45:05.158Z,11.60
2023-02-02T06:47:35.239Z,11.70
2023-02-02T06:50:04.256Z,11.70
2023-02-02T06:52:33.231Z,10.60
2023-02-02T06:55:04.412Z,11.20
2023-02-02T07:00:04.841Z,10.40
2023-02-02T07:02:34.431Z,11.60
2023-02-02T07:05:03.870Z,9.50
2023-02-02T07:07:37.107Z,10.90
2023-02-02T07:11:09.672Z,10.60
2023-02-02T07:13:01.967Z,10.50
2023-02-02T07:15:31.711Z,12.30
2023-02-02T07:18:02.930Z,10.00
2023-02-02T07:20:32.758Z,13.00
2023-02-02T07:23:02.906Z,10.70
2023-02-02T07:25:32.176Z,11.90
2023-02-02T07:28:00.894Z,11.00
2023-02-02T07:30:30.331Z,10.60
2023-02-02T07:32:59.279Z,10.50
2023-02-02T07:35:29.764Z,10.30
2023-02-02T07:37:59.570Z,10.90
2023-02-02T07:40:29.487Z,11.60
2023-02-02T07:43:01.156Z,11.70
2023-02-02T07:45:31.267Z,11.80
2023-02-02T07:48:04.098Z,11.40
2023-02-02T07:50:32.807Z,12.50
2023-02-02T07:53:02.255Z,11.60
2023-02-02T07:55:32.733Z,10.90
2023-02-02T07:58:02.295Z,11.10
2023-02-02T08:00:31.999Z,9.30
2023-02-02T08:03:00.845Z,11.20
2023-02-02T08:05:29.758Z,10.40
2023-02-02T08:07:59.713Z,9.70
2023-02-02T08:10:28.937Z,10.60
2023-02-02T08:12:59.693Z,10.40
2023-02-02T08:15:29.414Z,9.20
2023-02-02T08:17:59.385Z,10.30
2023-02-02T08:20:28.902Z,10.40
2023-02-02T08:22:59.147Z,10.60
2023-02-02T08:25:28.584Z,10.10
2023-02-02T08:27:59.082Z,10.40
2023-02-02T08:30:29.302Z,10.50
2023-02-02T08:32:58.346Z,10.10
2023-02-02T08:35:27.916Z,10.50
2023-02-02T08:37:57.359Z,11.80
2023-02-02T08:40:27.295Z,11.40
2023-02-02T08:42:56.492Z,11.10
2023-02-02T08:46:13.915Z,9.40
2023-02-02T08:48:19.712Z,11.20
2023-02-02T08:50:59.756Z,10.70
2023-02-02T08:53:29.048Z,10.20
2023-02-02T08:56:01.307Z,10.10
2023-02-02T08:58:30.967Z,9.80
2023-02-02T09:01:09.440Z,8.90
2023-02-02T09:03:42.145Z,9.00
2023-02-02T09:06:15.868Z,9.00
2023-02-02T09:08:49.359Z,9.90
2023-02-02T09:11:19.187Z,9.50
2023-02-02T09:13:48.921Z,9.40
2023-02-02T09:16:18.480Z,10.40
2023-02-02T09:18:48.243Z,9.80
2023-02-02T09:21:19.040Z,9.40
2023-02-02T09:23:49.674Z,10.20
2023-02-02T09:26:27.597Z,7.90
2023-02-02T09:29:03.284Z,10.30
2023-02-02T09:31:36.947Z,9.70
2023-02-02T09:34:06.725Z,9.60
2023-02-02T09:36:36.689Z,11.00
2023-02-02T09:39:07.212Z,10.20
2023-02-02T09:41:43.026Z,10.40
2023-02-02T09:44:48.570Z,11.00
2023-02-02T09:47:20.390Z,11.10
2023-02-02T09:50:16.954Z,10.70
2023-02-02T09:52:58.345Z,10.10
2023-02-02T09:55:49.656Z,11.60
2023-02-02T09:58:25.489Z,12.30
2023-02-02T10:00:56.898Z,11.10
2023-02-02T10:03:42.876Z,10.20
2023-02-02T10:06:27.862Z,10.80
2023-02-02T10:09:39.869Z,11.00
2023-02-02T10:12:32.841Z,10.70
2023-02-02T10:15:37.084Z,11.20
2023-02-02T10:18:36.729Z,11.90
2023-02-02T10:21:37.450Z,10.20
2023-02-02T10:24:09.940Z,12.60
2023-02-02T10:26:43.317Z,11.60
2023-02-02T10:29:29.241Z,11.10
2023-02-02T10:32:31.428Z,11.80
2023-02-02T10:35:20.939Z,10.50
2023-02-02T10:38:31.175Z,11.30
2023-02-02T10:41:22.157Z,10.60
2023-02-02T10:43:58.459Z,11.30
2023-02-02T10:46:36.337Z,10.20
2023-02-02T10:49:18.447Z,13.00
2023-02-02T10:52:13.588Z,12.80
2023-02-02T10:55:08.463Z,12.50
2023-02-02T10:58:06.093Z,12.90
2023-02-02T11:00:53.739Z,12.60
2023-02-02T11:03:34.386Z,13.90
2023-02-02T11:06:24.269Z,13.80
2023-02-02T11:08:57.704Z,13.00
2023-02-02T11:11:36.358Z,12.90
2023-02-02T11:14:19.042Z,14.40
2023-02-02T11:16:59.920Z,14.70
2023-02-02T11:19:30.893Z,15.50
2023-02-02T11:22:03.296Z,14.80
2023-02-02T11:24:48.663Z,16.90
2023-02-02T11:27:29.130Z,14.10
2023-02-02T11:30:01.233Z,15.40
2023-02-02T11:32:32.788Z,13.80
2023-02-02T11:35:11.826Z,14.80
2023-02-02T11:37:53.397Z,14.00
2023-02-02T11:40:26.811Z,15.30
2023-02-02T11:42:57.558Z,14.00
2023-02-02T11:45:43.306Z,12.40
2023-02-02T11:48:19.118Z,11.50
2023-02-02T11:50:50.965Z,13.50
2023-02-02T11:53:31.806Z,13.40
2023-02-02T11:56:06.975Z,13.30
2023-02-02T11:59:03.968Z,13.30
2023-02-02T12:01:40.688Z,12.60
2023-02-02T12:04:26.293Z,14.00
2023-02-02T12:06:57.822Z,13.60
2023-02-02T12:09:30.066Z,14.30
2023-02-02T12:15:13.827Z,14.00
2023-02-02T12:17:53.827Z,13.30
2023-02-02T12:20:46.475Z,13.70
2023-02-02T12:29:07.885Z,11.20
2023-02-02T12:32:05.360Z,13.30
2023-02-02T12:34:52.599Z,12.40
2023-02-02T12:37:30.327Z,13.90
2023-02-02T12:40:22.802Z,16.00
2023-02-02T12:46:05.823Z,14.50
2023-02-02T12:48:49.798Z,15.40
2023-02-02T12:51:25.374Z,14.00
2023-02-02T12:54:35.011Z,14.40
2023-02-02T12:57:17.401Z,14.50
2023-02-02T12:59:52.313Z,11.00
2023-02-02T13:03:07.081Z,13.50
2023-02-02T13:05:49.365Z,12.70
2023-02-02T13:08:37.869Z,13.30
2023-02-02T13:11:31.825Z,14.00
2023-02-02T13:14:09.157Z,13.30
2023-02-02T13:16:41.396Z,13.70
2023-02-02T13:19:13.582Z,13.40
2023-02-02T13:21:43.744Z,13.50
2023-02-02T13:24:16.064Z,13.70
2023-02-02T13:26:46.506Z,12.10
2023-02-02T13:30:09.352Z,10.90
2023-02-02T13:32:39.511Z,13.40
2023-02-02T13:35:18.990Z,11.50
2023-02-02T13:37:59.245Z,13.20
2023-02-02T13:40:37.348Z,13.00
2023-02-02T13:43:11.268Z,12.70
2023-02-02T13:45:50.225Z,13.90
2023-02-02T13:48:40.294Z,14.20
2023-02-02T13:51:20.646Z,13.50
2023-02-02T13:54:16.253Z,13.60
2023-02-02T13:57:13.930Z,13.70
2023-02-02T13:59:51.915Z,15.10
2023-02-02T14:02:43.240Z,13.10
2023-02-02T14:05:23.216Z,14.80
2023-02-02T14:08:06.956Z,14.70
2023-02-02T14:10:41.338Z,15.30
2023-02-02T14:13:35.737Z,15.20
2023-02-02T14:16:08.343Z,16.50
2023-02-02T14:18:54.886Z,15.80
2023-02-02T14:21:35.551Z,14.80
2023-02-02T14:24:05.210Z,16.20
2023-02-02T14:26:49.273Z,15.80
2023-02-02T14:29:36.856Z,16.20
2023-02-02T14:32:30.665Z,17.40
2023-02-02T14:35:16.194Z,16.90
2023-02-02T14:38:02.393Z,16.60
2023-02-02T14:41:14.307Z,16.10
2023-02-02T14:43:51.077Z,15.20
2023-02-02T14:46:25.689Z,15.90
2023-02-02T14:48:59.924Z,14.90
2023-02-02T14:51:30.332Z,15.60
2023-02-02T14:54:03.949Z,15.50
2023-02-02T14:56:52.513Z,15.20
2023-02-02T14:59:34.908Z,13.90
2023-02-02T15:02:12.474Z,12.90
2023-02-02T15:04:50.580Z,14.80
2023-02-02T15:07:44.604Z,13.30
2023-02-02T15:10:47.309Z,13.60
2023-02-02T15:13:16.343Z,13.20
2023-02-02T15:15:45.020Z,13.80
2023-02-02T15:18:16.750Z,12.80
2023-02-02T15:20:50.054Z,12.90
2023-02-02T15:23:23.617Z,13.30
2023-02-02T15:26:01.897Z,13.00
2023-02-02T15:28:40.016Z,13.10
2023-02-02T15:31:21.069Z,9.60
2023-02-02T15:33:51.518Z,12.70
2023-02-02T15:36:21.338Z,15.10
2023-02-02T15:38:53.603Z,13.40
2023-02-02T15:44:28.611Z,12.20
2023-02-02T15:46:58.558Z,14.30
2023-02-02T15:49:35.447Z,12.70
2023-02-02T15:52:43.045Z,12.90
2023-02-02T15:55:31.977Z,12.90
2023-02-02T15:58:03.835Z,13.80
2023-02-02T16:00:36.276Z,14.00
2023-02-02T16:03:19.565Z,14.30
2023-02-02T16:05:52.175Z,14.50
2023-02-02T16:08:36.540Z,13.80
2023-02-02T16:11:11.317Z,13.30
2023-02-02T16:14:12.210Z,13.70
2023-02-02T16:16:46.204Z,11.90
2023-02-02T16:19:43.395Z,13.30
2023-02-02T16:22:25.718Z,14.30
2023-02-02T16:27:34.413Z,10.70
2023-02-02T16:30:22.791Z,13.60
2023-02-02T16:32:51.950Z,12.90
2023-02-02T16:35:34.491Z,13.10
2023-02-02T16:41:07.846Z,13.00
2023-02-02T16:43:37.631Z,11.50
2023-02-02T16:46:10.194Z,13.20
2023-02-02T16:48:40.304Z,11.90
2023-02-02T16:51:17.940Z,11.50
2023-02-02T16:54:05.973Z,11.70
2023-02-02T16:56:44.239Z,12.10
2023-02-02T16:59:25.805Z,10.60
2023-02-02T17:01:59.471Z,10.40
2023-02-02T17:04:30.159Z,12.00
2023-02-02T17:07:14.239Z,10.60
2023-02-02T17:10:13.822Z,12.90
2023-02-02T17:13:07.336Z,11.30
2023-02-02T17:15:42.395Z,12.00
2023-02-02T17:18:11.866Z,12.50
2023-02-02T17:20:40.476Z,11.30
2023-02-02T17:23:23.152Z,9.20
2023-02-02T17:25:56.414Z,11.60
2023-02-02T17:28:26.653Z,12.30
2023-02-02T17:31:02.046Z,13.00
2023-02-02T17:33:35.543Z,13.80
2023-02-02T17:36:04.349Z,12.70
2023-02-02T17:38:33.558Z,12.40
2023-02-02T17:41:04.723Z,11.80
2023-02-02T17:43:40.455Z,11.50
2023-02-02T17:46:16.818Z,12.40
2023-02-02T17:48:46.865Z,14.20
2023-02-02T17:51:20.667Z,12.60
2023-02-02T18:00:29.309Z,11.90
2023-02-02T18:03:02.571Z,12.50
2023-02-02T18:05:32.418Z,12.70
2023-02-02T18:08:03.153Z,13.40
2023-02-02T18:10:44.858Z,12.20
2023-02-02T18:13:16.528Z,12.50
2023-02-02T18:15:46.243Z,11.00
2023-02-02T18:18:15.221Z,12.70
2023-02-02T18:20:46.922Z,11.80
2023-02-02T18:23:16.912Z,13.00
2023-02-02T18:25:45.726Z,14.70
2023-02-02T18:28:17.597Z,14.20
2023-02-02T18:30:47.242Z,13.50
2023-02-02T18:33:20.378Z,13.30
2023-02-02T18:35:51.101Z,13.20
2023-02-02T18:38:26.828Z,14.40
2023-02-02T18:41:06.643Z,12.70
2023-02-02T18:43:34.775Z,13.30
2023-02-02T18:46:08.332Z,14.40
2023-02-02T18:48:39.261Z,14.50
2023-02-02T18:51:08.304Z,13.30
2023-02-02T18:53:37.700Z,14.00
2023-02-02T18:56:09.888Z,11.80
2023-02-02T18:58:40.570Z,13.00
2023-02-02T19:01:09.572Z,13.10
2023-02-02T19:03:38.865Z,12.20
2023-02-02T19:06:28.688Z,12.70
2023-02-02T19:08:57.951Z,12.70
2023-02-02T19:11:32.548Z,13.80
2023-02-02T19:14:05.418Z,14.00
2023-02-02T19:23:08.944Z,12.40
2023-02-02T19:25:40.001Z,13.40
2023-02-02T19:28:23.355Z,14.10
2023-02-02T19:30:58.595Z,10.90
2023-02-02T19:33:51.568Z,13.20
2023-02-02T19:36:22.592Z,13.00
2023-02-02T19:39:12.928Z,11.50
2023-02-02T19:41:44.097Z,14.30
2023-02-02T19:44:22.237Z,14.50
2023-02-02T19:46:53.504Z,14.30
2023-02-02T19:49:30.536Z,13.80
2023-02-02T19:51:59.698Z,13.40
2023-02-02T19:54:31.887Z,13.40
2023-02-02T19:57:06.931Z,12.60
2023-02-02T19:59:37.036Z,13.60
2023-02-02T20:02:48.583Z,12.00
2023-02-02T20:08:28.902Z,12.30
2023-02-02T20:11:03.272Z,12.90
2023-02-02T20:13:47.899Z,12.80
2023-02-02T20:16:27.979Z,12.60
2023-02-02T20:18:57.433Z,12.90
2023-02-02T20:21:42.425Z,12.30
2023-02-02T20:24:24.304Z,11.70
2023-02-02T20:26:54.283Z,12.20
2023-02-02T20:29:41.417Z,11.40
2023-02-02T20:32:21.896Z,12.50
2023-02-02T20:34:52.302Z,12.30
2023-02-02T20:37:35.329Z,11.90
2023-02-02T20:40:21.765Z,12.90
2023-02-02T20:42:52.067Z,11.40
2023-02-02T20:45:23.049Z,11.90
2023-02-02T20:47:53.090Z,10.30
2023-02-02T20:52:56.125Z,11.80
2023-02-02T20:55:26.852Z,11.50
2023-02-02T20:57:59.120Z,11.90
2023-02-02T21:00:30.666Z,12.20
2023-02-02T21:05:35.587Z,11.10
2023-02-02T21:08:07.249Z,11.50
2023-02-02T21:10:37.285Z,11.00
2023-02-02T21:13:08.787Z,11.40
2023-02-02T21:15:38.687Z,11.20
2023-02-02T21:18:09.955Z,11.30
2023-02-02T21:20:39.242Z,11.00
2023-02-02T21:23:11.070Z,11.70
2023-02-02T21:25:39.965Z,11.20
2023-02-02T21:28:10.019Z,9.10
2023-02-02T21:30:39.476Z,11.00
2023-02-02T21:33:08.204Z,11.30
2023-02-02T21:35:36.497Z,12.10
2023-02-02T21:38:11.141Z,11.80
2023-02-02T21:40:40.278Z,10.60
2023-02-02T21:43:15.559Z,11.00
2023-02-02T21:45:45.578Z,11.40
2023-02-02T21:48:33.508Z,11.20
2023-02-02T21:51:22.985Z,10.80
2023-02-02T21:53:51.413Z,11.60
2023-02-02T21:56:39.504Z,10.80
2023-02-02T21:59:17.156Z,10.30
2023-02-02T22:01:47.645Z,11.30
2023-02-02T22:04:16.935Z,10.40
2023-02-02T22:06:48.738Z,10.70
2023-02-02T22:09:25.010Z,10.40
2023-02-02T22:12:02.215Z,9.90
2023-02-02T22:14:47.607Z,10.50
2023-02-02T22:17:26.712Z,9.90
2023-02-02T22:20:27.752Z,10.00
2023-02-02T22:22:56.320Z,10.40
2023-02-02T22:25:34.155Z,10.50
2023-02-02T22:28:41.218Z,9.00
2023-02-02T22:31:12.042Z,9.90
2023-02-02T22:33:44.827Z,10.30
2023-02-02T22:36:14.005Z,9.20
2023-02-02T22:38:42.795Z,8.90
2023-02-02T22:41:11.775Z,8.90
2023-02-02T22:43:40.551Z,7.80
2023-02-02T22:46:10.939Z,7.40
2023-02-02T22:48:40.198Z,7.30
2023-02-02T22:51:09.475Z,6.20
2023-02-02T22:53:38.045Z,7.00
2023-02-02T22:56:07.243Z,6.20
2023-02-02T22:58:36.385Z,6.10
2023-02-02T23:01:05.454Z,6.90
2023-02-02T23:03:35.029Z,6.10
2023-02-02T23:06:28.473Z,6.00
2023-02-02T23:08:59.114Z,7.00
2023-02-02T23:11:27.753Z,7.10
2023-02-02T23:13:57.715Z,7.20
2023-02-02T23:16:26.556Z,7.00
2023-02-02T23:18:57.972Z,8.00
2023-02-02T23:21:26.335Z,8.80
2023-02-02T23:23:56.090Z,9.10
2023-02-02T23:26:25.524Z,9.80
2023-02-02T23:28:53.584Z,9.50
2023-02-02T23:31:21.408Z,10.50
2023-02-02T23:33:50.007Z,11.60
2023-02-02T23:36:20.997Z,11.70
2023-02-02T23:38:49.241Z,11.20
2023-02-02T23:41:17.213Z,10.60
2023-02-02T23:43:44.318Z,10.70
2023-02-02T23:46:11.739Z,8.80
2023-02-02T23:48:41.472Z,9.70
2023-02-02T23:51:09.056Z,10.00
2023-02-02T23:53:36.895Z,10.60
2023-02-02T23:56:05.809Z,10.50
2023-02-02T23:58:33.413Z,11.10
